createdAt,value
2017-08-14T00:00:18.081Z,15.50
2017-08-14T00:02:47.322Z,15.50
2017-08-14T00:05:16.593Z,15.60
2017-08-14T00:07:44.729Z,15.50
2017-08-14T00:10:15.405Z,15.50
2017-08-14T00:12:44.276Z,15.50
2017-08-14T00:15:12.461Z,15.50
2017-08-14T00:17:41.235Z,15.40
2017-08-14T00:20:10.841Z,15.40
2017-08-14T00:22:40.877Z,15.30
2017-08-14T00:25:11.983Z,15.30
2017-08-14T00:27:40.394Z,15.30
2017-08-14T00:30:10.870Z,15.30
2017-08-14T00:32:41.579Z,15.20
2017-08-14T00:35:09.540Z,15.20
2017-08-14T00:37:38.561Z,15.30
2017-08-14T00:40:06.440Z,15.30
2017-08-14T00:42:34.154Z,15.30
2017-08-14T00:45:02.055Z,15.30
2017-08-14T00:47:30.484Z,15.30
2017-08-14T00:49:58.026Z,15.30
2017-08-14T00:52:25.638Z,15.30
2017-08-14T00:54:53.178Z,15.20
2017-08-14T00:57:21.491Z,15.20
2017-08-14T00:59:49.060Z,15.20
2017-08-14T01:02:16.791Z,15.20
2017-08-14T01:04:44.581Z,15.20
2017-08-14T01:07:12.238Z,15.10
2017-08-14T01:09:40.077Z,15.10
2017-08-14T01:12:09.418Z,15.10
2017-08-14T01:14:37.002Z,15.00
2017-08-14T01:17:04.782Z,15.00
2017-08-14T01:19:32.949Z,15.00
2017-08-14T01:22:00.449Z,15.00
2017-08-14T01:24:28.007Z,15.00
2017-08-14T01:26:55.522Z,14.90
2017-08-14T01:29:23.190Z,14.90
2017-08-14T01:31:50.692Z,14.90
2017-08-14T01:34:19.238Z,14.90
2017-08-14T01:36:46.734Z,14.90
2017-08-14T01:39:14.456Z,14.90
2017-08-14T01:41:42.233Z,14.90
2017-08-14T01:44:14.642Z,14.90
2017-08-14T01:46:42.264Z,14.80
2017-08-14T01:49:10.038Z,14.80
2017-08-14T01:51:37.744Z,14.80
2017-08-14T01:54:05.584Z,14.80
2017-08-14T01:56:33.148Z,14.70
2017-08-14T01:59:00.758Z,14.70
2017-08-14T02:01:28.328Z,14.60
2017-08-14T02:03:56.495Z,14.60
2017-08-14T02:06:24.180Z,14.60
2017-08-14T02:08:51.863Z,14.60
2017-08-14T02:11:19.683Z,14.60
2017-08-14T02:13:47.299Z,14.70
2017-08-14T02:16:15.367Z,14.60
2017-08-14T02:18:43.326Z,14.60
2017-08-14T02:21:11.106Z,14.60
2017-08-14T02:23:38.608Z,14.60
2017-08-14T02:26:06.610Z,14.50
2017-08-14T02:28:35.396Z,14.40
2017-08-14T02:31:03.898Z,14.40
2017-08-14T02:33:32.483Z,14.40
2017-08-14T02:36:00.413Z,14.40
2017-08-14T02:38:28.781Z,14.40
2017-08-14T02:40:56.786Z,14.40
2017-08-14T02:43:24.631Z,14.40
2017-08-14T02:45:52.463Z,14.40
2017-08-14T02:48:20.281Z,14.40
2017-08-14T02:50:48.122Z,14.40
2017-08-14T02:53:15.749Z,14.30
2017-08-14T02:55:43.763Z,14.30
2017-08-14T02:58:11.400Z,14.30
2017-08-14T03:03:11.750Z,14.20
2017-08-14T03:05:39.383Z,14.20
2017-08-14T03:08:07.405Z,14.10
2017-08-14T03:10:34.964Z,14.10
2017-08-14T03:13:02.785Z,14.10
2017-08-14T03:15:30.598Z,14.00
2017-08-14T03:17:58.674Z,14.10
2017-08-14T03:20:26.746Z,14.10
2017-08-14T03:22:54.536Z,14.00
2017-08-14T03:25:22.071Z,14.00
2017-08-14T03:27:50.417Z,14.10
2017-08-14T03:30:18.097Z,14.00
2017-08-14T03:32:45.776Z,14.00
2017-08-14T03:35:14.688Z,14.00
2017-08-14T03:37:42.253Z,14.00
2017-08-14T03:40:10.960Z,13.90
2017-08-14T03:42:38.771Z,13.90
2017-08-14T03:45:06.826Z,13.90
2017-08-14T03:47:34.612Z,13.90
2017-08-14T03:50:02.595Z,13.80
2017-08-14T03:52:30.319Z,13.90
2017-08-14T03:54:58.006Z,13.90
2017-08-14T03:57:26.419Z,13.80
2017-08-14T03:59:54.371Z,13.80
2017-08-14T04:02:22.447Z,13.80
2017-08-14T04:04:50.157Z,13.80
2017-08-14T04:07:17.897Z,13.80
2017-08-14T04:09:45.390Z,13.70
2017-08-14T04:12:13.259Z,13.80
2017-08-14T04:14:40.996Z,13.80
2017-08-14T04:17:08.799Z,13.80
2017-08-14T04:19:36.496Z,13.70
2017-08-14T04:22:04.466Z,13.80
2017-08-14T04:24:33.980Z,13.80
2017-08-14T04:27:01.820Z,13.80
2017-08-14T04:29:29.551Z,13.80
2017-08-14T04:31:57.082Z,13.70
2017-08-14T04:37:01.927Z,13.70
2017-08-14T04:39:29.492Z,13.70
2017-08-14T04:41:57.078Z,13.70
2017-08-14T04:44:24.762Z,13.70
2017-08-14T04:46:52.499Z,13.70
2017-08-14T04:49:20.321Z,13.80
2017-08-14T04:51:47.968Z,13.80
2017-08-14T04:54:15.507Z,13.80
2017-08-14T04:56:45.280Z,13.90
2017-08-14T04:59:13.480Z,13.80
2017-08-14T05:01:41.216Z,13.90
2017-08-14T05:04:08.778Z,13.90
2017-08-14T05:06:36.321Z,13.90
2017-08-14T05:09:04.099Z,14.00
2017-08-14T05:11:32.460Z,14.00
2017-08-14T05:14:00.432Z,14.00
2017-08-14T05:16:28.105Z,14.10
2017-08-14T05:18:56.383Z,14.10
2017-08-14T05:21:27.842Z,14.20
2017-08-14T05:23:55.541Z,14.20
2017-08-14T05:26:24.002Z,14.20
2017-08-14T05:28:51.872Z,14.30
2017-08-14T05:31:20.992Z,14.40
2017-08-14T05:36:25.915Z,14.30
2017-08-14T05:38:55.505Z,14.40
2017-08-14T05:41:24.976Z,14.50
2017-08-14T05:43:53.040Z,14.60
2017-08-14T05:46:21.051Z,14.60
2017-08-14T05:48:49.780Z,14.70
2017-08-14T05:51:18.422Z,14.70
2017-08-14T05:53:47.417Z,14.80
2017-08-14T05:56:16.164Z,14.80
2017-08-14T05:58:44.769Z,14.90
2017-08-14T06:01:13.121Z,15.00
2017-08-14T06:03:41.029Z,15.10
2017-08-14T06:06:10.357Z,15.10
2017-08-14T06:08:38.068Z,15.20
2017-08-14T06:11:05.939Z,15.40
2017-08-14T06:13:34.611Z,15.30
2017-08-14T06:16:04.978Z,15.40
2017-08-14T06:18:33.131Z,15.40
2017-08-14T06:21:02.064Z,15.60
2017-08-14T06:23:29.575Z,15.60
2017-08-14T06:25:57.417Z,15.70
2017-08-14T06:28:26.149Z,15.70
2017-08-14T06:30:53.918Z,15.80
2017-08-14T06:33:22.049Z,15.90
2017-08-14T06:35:49.678Z,16.00
2017-08-14T06:38:17.490Z,16.00
2017-08-14T06:40:45.158Z,16.10
2017-08-14T06:43:12.875Z,16.20
2017-08-14T06:45:42.037Z,16.40
2017-08-14T06:48:09.627Z,16.70
2017-08-14T06:50:37.490Z,17.50
2017-08-14T06:53:05.712Z,18.90
2017-08-14T06:55:35.791Z,20.60
2017-08-14T06:58:04.346Z,22.20
2017-08-14T07:00:33.927Z,22.90
2017-08-14T07:03:05.119Z,23.70
2017-08-14T07:08:06.593Z,25.40
2017-08-14T07:10:34.539Z,26.40
2017-08-14T07:13:09.635Z,27.20
2017-08-14T07:15:56.708Z,28.10
2017-08-14T07:18:35.074Z,28.00
2017-08-14T07:21:03.172Z,28.30
2017-08-14T07:23:40.128Z,28.60
2017-08-14T07:26:09.348Z,28.90
2017-08-14T07:28:39.064Z,28.80
2017-08-14T07:31:08.144Z,29.40
2017-08-14T07:33:36.920Z,29.20
2017-08-14T07:36:04.989Z,29.20
2017-08-14T07:38:38.724Z,29.00
2017-08-14T07:44:06.237Z,28.90
2017-08-14T07:46:34.381Z,29.10
2017-08-14T07:49:02.590Z,29.10
2017-08-14T07:51:34.003Z,29.60
2017-08-14T07:54:04.658Z,30.10
2017-08-14T07:56:32.366Z,29.50
2017-08-14T07:59:01.035Z,29.90
2017-08-14T08:01:30.665Z,30.50
2017-08-14T08:04:01.244Z,30.70
2017-08-14T08:06:31.022Z,30.70
2017-08-14T08:08:58.995Z,30.70
2017-08-14T08:11:26.600Z,30.40
2017-08-14T08:13:54.467Z,30.60
2017-08-14T08:16:22.241Z,30.40
2017-08-14T08:18:50.121Z,30.30
2017-08-14T08:21:19.654Z,30.20
2017-08-14T08:23:47.467Z,30.00
2017-08-14T08:26:33.411Z,29.50
2017-08-14T08:29:05.134Z,29.70
2017-08-14T08:31:33.251Z,29.80
2017-08-14T08:34:14.214Z,30.30
2017-08-14T08:36:46.881Z,30.90
2017-08-14T08:39:16.445Z,31.90
2017-08-14T08:44:21.320Z,31.40
2017-08-14T08:46:52.969Z,31.30
2017-08-14T08:49:21.382Z,31.40
2017-08-14T08:51:53.052Z,32.20
2017-08-14T08:54:30.128Z,32.10
2017-08-14T08:56:59.118Z,32.20
2017-08-14T08:59:27.862Z,33.00
2017-08-14T09:01:56.583Z,32.90
2017-08-14T09:04:24.450Z,32.10
2017-08-14T09:06:53.547Z,32.00
2017-08-14T09:09:22.116Z,32.10
2017-08-14T09:14:28.152Z,32.20
2017-08-14T09:17:01.833Z,31.90
2017-08-14T09:22:11.417Z,32.70
2017-08-14T09:24:54.341Z,32.80
2017-08-14T09:27:27.118Z,32.90
2017-08-14T09:30:06.870Z,32.80
2017-08-14T09:32:40.396Z,33.40
2017-08-14T09:35:17.034Z,33.30
2017-08-14T09:37:57.329Z,32.90
2017-08-14T09:40:33.620Z,33.20
2017-08-14T09:43:39.378Z,32.80
2017-08-14T09:46:29.509Z,33.50
2017-08-14T09:54:19.653Z,31.80
2017-08-14T09:56:52.791Z,30.80
2017-08-14T09:59:24.263Z,30.30
2017-08-14T10:02:17.198Z,30.40
2017-08-14T10:07:31.748Z,30.00
2017-08-14T10:10:02.653Z,30.40
2017-08-14T10:12:31.264Z,30.60
2017-08-14T10:15:09.635Z,30.70
2017-08-14T10:20:27.817Z,31.60
2017-08-14T10:30:59.022Z,31.70
2017-08-14T10:33:33.122Z,32.00
2017-08-14T10:36:06.210Z,32.30
2017-08-14T10:38:37.293Z,31.80
2017-08-14T10:41:06.052Z,32.10
2017-08-14T10:43:36.303Z,32.50
2017-08-14T10:46:30.887Z,32.00
2017-08-14T10:49:01.215Z,32.20
2017-08-14T10:51:30.570Z,32.00
2017-08-14T10:54:11.357Z,31.80
2017-08-14T10:56:48.944Z,31.70
2017-08-14T10:59:35.259Z,31.50
2017-08-14T11:02:04.100Z,30.90
2017-08-14T11:04:47.730Z,30.50
2017-08-14T11:07:18.284Z,30.10
2017-08-14T11:12:30.305Z,28.80
2017-08-14T11:17:41.986Z,28.00
2017-08-14T11:22:51.297Z,27.60
2017-08-14T11:25:19.786Z,27.60
2017-08-14T11:27:47.986Z,27.50
2017-08-14T11:30:16.461Z,27.50
2017-08-14T11:32:45.140Z,27.50
2017-08-14T11:35:32.663Z,27.60
2017-08-14T11:38:06.928Z,27.60
2017-08-14T11:40:37.233Z,27.30
2017-08-14T11:43:12.258Z,27.30
2017-08-14T11:45:40.477Z,27.10
2017-08-14T11:48:13.782Z,27.10
2017-08-14T11:50:52.784Z,27.00
2017-08-14T11:56:19.915Z,26.90
2017-08-14T11:58:47.892Z,26.80
2017-08-14T12:06:55.790Z,26.60
2017-08-14T12:09:25.271Z,26.60
2017-08-14T12:11:54.999Z,26.70
2017-08-14T12:14:24.849Z,26.70
2017-08-14T12:16:55.938Z,26.70
2017-08-14T12:19:38.712Z,26.60
2017-08-14T12:24:41.402Z,26.60
2017-08-14T12:27:10.133Z,26.70
2017-08-14T12:29:42.354Z,26.60
2017-08-14T12:32:11.623Z,26.50
2017-08-14T12:34:39.856Z,26.70
2017-08-14T12:37:12.059Z,26.90
2017-08-14T12:39:46.856Z,27.10
2017-08-14T12:42:26.642Z,27.30
2017-08-14T12:45:06.305Z,27.30
2017-08-14T12:47:43.047Z,27.40
2017-08-14T12:50:34.497Z,27.40
2017-08-14T12:53:07.285Z,27.40
2017-08-14T12:55:45.881Z,27.00
2017-08-14T12:58:22.074Z,27.00
2017-08-14T13:00:50.644Z,27.00
2017-08-14T13:03:47.722Z,27.00
2017-08-14T13:06:18.057Z,27.20
2017-08-14T13:08:48.796Z,27.50
2017-08-14T13:14:17.147Z,27.30
2017-08-14T13:16:45.983Z,27.40
2017-08-14T13:19:14.351Z,27.60
2017-08-14T13:21:46.120Z,27.50
2017-08-14T13:24:19.926Z,27.20
2017-08-14T13:26:51.423Z,27.00
2017-08-14T13:29:36.301Z,27.10
2017-08-14T13:32:07.757Z,27.20
2017-08-14T13:34:53.549Z,27.30
2017-08-14T13:37:42.940Z,27.50
2017-08-14T13:40:18.260Z,27.20
2017-08-14T13:45:44.602Z,27.10
2017-08-14T13:48:15.978Z,27.30
2017-08-14T13:53:43.548Z,27.20
2017-08-14T13:56:11.697Z,27.30
2017-08-14T13:59:00.694Z,27.20
2017-08-14T14:01:32.460Z,26.70
2017-08-14T14:06:40.967Z,26.60
2017-08-14T14:09:13.833Z,26.70
2017-08-14T14:17:38.836Z,26.70
2017-08-14T14:20:13.872Z,26.60
2017-08-14T14:22:48.230Z,26.50
2017-08-14T14:37:02.181Z,26.10
2017-08-14T14:48:42.190Z,26.00
2017-08-14T14:51:33.509Z,26.30
2017-08-14T15:04:50.497Z,27.10
2017-08-14T15:13:02.647Z,27.10
2017-08-14T15:15:30.205Z,27.10
2017-08-14T15:17:58.802Z,27.00
2017-08-14T15:20:27.246Z,27.00
2017-08-14T15:22:55.489Z,27.00
2017-08-14T15:25:22.926Z,27.10
2017-08-14T15:27:50.462Z,27.10
2017-08-14T15:30:18.111Z,27.00
2017-08-14T15:32:45.969Z,27.00
2017-08-14T15:35:13.701Z,27.00
2017-08-14T15:37:42.925Z,26.70
2017-08-14T15:40:11.024Z,26.70
2017-08-14T15:42:39.652Z,26.70
2017-08-14T15:45:07.182Z,26.60
2017-08-14T15:47:34.818Z,26.60
2017-08-14T15:50:03.524Z,26.60
2017-08-14T15:52:31.078Z,26.50
2017-08-14T15:54:59.448Z,26.60
2017-08-14T15:57:28.100Z,26.50
2017-08-14T15:59:55.985Z,26.60
2017-08-14T16:02:23.512Z,26.60
2017-08-14T16:04:51.018Z,26.60
2017-08-14T16:07:19.015Z,26.60
2017-08-14T16:09:46.461Z,26.60
2017-08-14T16:12:14.025Z,26.40
2017-08-14T16:14:44.018Z,26.40
2017-08-14T16:17:12.377Z,26.20
2017-08-14T16:19:45.903Z,26.20
2017-08-14T16:22:14.972Z,26.20
2017-08-14T16:24:42.554Z,26.10
2017-08-14T16:27:14.372Z,26.00
2017-08-14T16:29:42.564Z,25.90
2017-08-14T16:32:11.263Z,25.90
2017-08-14T16:34:38.896Z,25.90
2017-08-14T16:37:06.603Z,25.90
2017-08-14T16:39:35.248Z,25.70
2017-08-14T16:42:04.770Z,25.70
2017-08-14T16:44:32.563Z,25.70
2017-08-14T16:47:00.040Z,25.70
2017-08-14T16:49:28.260Z,25.70
2017-08-14T16:51:55.852Z,25.80
2017-08-14T16:54:24.201Z,25.80
2017-08-14T16:56:52.218Z,25.80
2017-08-14T16:59:20.746Z,26.00
2017-08-14T17:01:48.304Z,25.90
2017-08-14T17:04:16.420Z,25.90
2017-08-14T17:06:44.731Z,25.90
2017-08-14T17:12:39.089Z,26.00
2017-08-14T17:51:28.358Z,25.70
2017-08-14T17:54:03.196Z,25.80
2017-08-14T17:56:34.872Z,25.80
2017-08-14T18:05:00.073Z,25.80
2017-08-14T18:07:43.288Z,25.70
2017-08-14T18:10:19.123Z,25.60
2017-08-14T18:12:59.532Z,25.50
2017-08-14T18:18:39.567Z,25.30
2017-08-14T18:23:54.880Z,25.10
2017-08-14T18:29:34.972Z,25.00
2017-08-14T18:35:12.144Z,24.70
2017-08-14T18:37:51.216Z,24.70
2017-08-14T18:40:25.526Z,24.70
2017-08-14T18:43:03.042Z,24.70
2017-08-14T18:45:34.163Z,24.70
2017-08-14T18:53:32.328Z,24.60
2017-08-14T18:56:09.789Z,24.50
2017-08-14T18:58:55.897Z,24.50
2017-08-14T19:01:33.355Z,24.50
2017-08-14T19:04:26.254Z,24.30
2017-08-14T19:09:52.747Z,24.10
2017-08-14T19:12:25.816Z,24.10
2017-08-14T19:14:59.110Z,24.00
2017-08-14T19:17:29.904Z,24.00
2017-08-14T19:20:00.364Z,23.90
2017-08-14T19:22:44.658Z,23.80
2017-08-14T19:25:13.907Z,23.80
2017-08-14T19:27:45.268Z,23.70
2017-08-14T19:30:15.181Z,23.70
2017-08-14T19:32:43.477Z,23.60
2017-08-14T19:35:11.211Z,23.60
2017-08-14T19:37:40.737Z,23.60
2017-08-14T19:40:09.181Z,23.60
2017-08-14T19:42:40.154Z,23.60
2017-08-14T19:45:23.662Z,23.60
2017-08-14T19:47:52.083Z,23.50
2017-08-14T19:50:25.544Z,23.40
2017-08-14T19:52:56.400Z,23.40
2017-08-14T19:55:31.028Z,23.30
2017-08-14T19:58:05.995Z,23.30
2017-08-14T20:00:41.993Z,23.20
2017-08-14T20:08:35.932Z,23.00
2017-08-14T20:11:06.438Z,22.90
2017-08-14T20:28:15.112Z,22.70
2017-08-14T20:30:54.090Z,22.80
2017-08-14T20:33:48.775Z,22.80
2017-08-14T20:39:16.060Z,22.70
2017-08-14T20:51:04.722Z,22.60
2017-08-14T20:53:48.902Z,22.60
2017-08-14T20:59:21.575Z,22.60
2017-08-14T21:01:49.873Z,22.60
2017-08-14T21:04:18.908Z,22.60
2017-08-14T21:09:24.532Z,22.70
2017-08-14T21:15:06.045Z,22.70
2017-08-14T21:23:58.923Z,22.60
2017-08-14T21:26:27.660Z,22.20
2017-08-14T21:29:02.446Z,22.10
2017-08-14T21:31:31.785Z,22.00
2017-08-14T21:34:03.544Z,21.90
2017-08-14T21:36:43.456Z,21.80
2017-08-14T21:39:13.401Z,21.70
2017-08-14T21:41:46.391Z,21.70
2017-08-14T21:44:18.142Z,21.70
2017-08-14T21:46:50.270Z,21.70
2017-08-14T21:51:56.993Z,21.60
2017-08-14T21:54:29.647Z,21.70
2017-08-14T21:57:09.194Z,21.70
2017-08-14T21:59:46.733Z,21.70
2017-08-14T22:02:19.104Z,21.60
2017-08-14T22:05:03.288Z,21.60
2017-08-14T22:07:40.295Z,21.70
2017-08-14T22:10:12.979Z,21.70
2017-08-14T22:12:43.030Z,21.60
2017-08-14T22:15:12.722Z,21.60
2017-08-14T22:20:31.940Z,21.60
2017-08-14T22:23:09.688Z,21.60
2017-08-14T22:25:40.529Z,21.70
2017-08-14T22:30:53.895Z,21.60
2017-08-14T22:36:03.544Z,21.50
2017-08-14T22:38:41.890Z,21.40
2017-08-14T22:41:18.717Z,21.40
2017-08-14T22:43:54.768Z,21.30
2017-08-14T22:46:25.465Z,21.30
2017-08-14T22:48:58.507Z,21.30
2017-08-14T22:56:49.215Z,21.10
2017-08-14T22:59:20.793Z,21.10
2017-08-14T23:01:49.636Z,21.00
2017-08-14T23:07:20.864Z,20.90
2017-08-14T23:09:49.339Z,20.90
2017-08-14T23:12:33.431Z,20.90
2017-08-14T23:15:06.005Z,20.80
2017-08-14T23:17:48.179Z,20.80
2017-08-14T23:20:43.208Z,20.80
2017-08-14T23:26:05.436Z,20.70
2017-08-14T23:28:34.101Z,20.70
2017-08-14T23:31:10.774Z,20.60
2017-08-14T23:33:45.915Z,20.50
2017-08-14T23:38:59.789Z,20.50
